Custer, Michigan
Current Conditions -  °F | °C
As of 11:35 AM on Monday 26 Jan 2015 (Local Time) from KLDM Reporting Station
Clear Clear  
Wind Chill: -13°   Ceiling: Unl
Heat Index: -8°   Visibility: 10mi
Dew Point: -12°   Wind: 8mph
Humidity: 70%   Direction: 170°S
Pressure: 29.95"   Gusts: NA
Location:  43.95°N, 86.22°W
Report Text: KLDM 261635Z AUTO 17007KT 10SM CLR M07/M12 A2995 RMK AO2 T10751122
Loading
Personal Weather Stations






























Interactive Weather Map New forecast layout! Learn more

10-Day Weather Forecast

Advertisements
Track Severe Weather on mobile